Time;durP1;ratioP1;P1;durP2;ratioP2;P2;SDS_P1;SDS_P2;PMS_P1;PMS_P2;Temp;Humidity;BMP_temperature;BMP_pressure;BME280_temperature;BME280_humidity;BME280_pressure;Samples;Min_cycle;Max_cycle;Signal;HPM_P1;HPM_P2
2022/10/08 00:00:50;;;;;;;16.00;14.00;;;10.70;99.90;;;;;;5027155;28;20177;-75
2022/10/08 00:03:17;;;;;;;21.95;13.77;;;10.70;99.90;;;;;;5022594;28;20197;-74
2022/10/08 00:05:43;;;;;;;18.88;13.55;;;10.70;99.90;;;;;;5017983;28;20268;-75
2022/10/08 00:08:09;;;;;;;22.02;14.13;;;10.60;99.90;;;;;;5017929;28;20324;-75
2022/10/08 00:10:35;;;;;;;16.63;14.05;;;10.60;99.90;;;;;;5009210;28;20612;-74
2022/10/08 00:13:02;;;;;;;17.98;13.15;;;10.60;99.90;;;;;;5029425;28;20200;-78
2022/10/08 00:15:29;;;;;;;21.73;13.88;;;10.60;99.90;;;;;;5020996;28;20219;-73
2022/10/08 00:17:54;;;;;;;18.63;14.15;;;10.60;99.90;;;;;;5022390;28;20185;-74
2022/10/08 00:20:20;;;;;;;20.52;13.60;;;10.50;99.90;;;;;;5020491;28;20189;-73
2022/10/08 00:22:47;;;;;;;29.45;13.73;;;10.50;99.90;;;;;;5014329;28;20221;-73
2022/10/08 00:25:13;;;;;;;16.30;14.32;;;10.40;99.90;;;;;;5012626;28;20722;-75
2022/10/08 00:27:38;;;;;;;14.63;13.13;;;10.40;99.90;;;;;;5023199;28;20177;-75
2022/10/08 00:30:05;;;;;;;14.02;12.63;;;10.50;99.90;;;;;;5016468;28;20636;-77
2022/10/08 00:32:31;;;;;;;14.77;12.43;;;10.50;99.90;;;;;;5015878;28;20213;-75
2022/10/08 00:34:57;;;;;;;14.30;12.20;;;10.50;99.90;;;;;;5018463;28;20216;-76
2022/10/08 00:37:24;;;;;;;15.50;12.90;;;10.50;99.90;;;;;;5018768;28;20260;-74
2022/10/08 00:39:50;;;;;;;24.10;13.48;;;10.50;99.90;;;;;;5018567;28;20187;-74
2022/10/08 00:42:16;;;;;;;16.95;11.73;;;10.50;99.90;;;;;;5015399;28;20206;-74
2022/10/08 00:44:53;;;;;;;15.57;12.38;;;10.70;99.90;;;;;;5023719;28;20180;-75
2022/10/08 00:47:31;;;;;;;19.02;11.77;;;10.70;99.90;;;;;;5017565;28;20165;-76
2022/10/08 00:50:11;;;;;;;14.00;12.18;;;10.70;99.90;;;;;;5018020;28;20177;-76
2022/10/08 00:52:46;;;;;;;13.32;11.95;;;10.70;99.90;;;;;;5021440;28;20223;-76
2022/10/08 00:55:14;;;;;;;12.30;11.10;;;10.70;99.90;;;;;;5019369;28;20168;-77
2022/10/08 00:57:42;;;;;;;13.50;12.13;;;10.70;99.90;;;;;;5017196;28;20203;-75
2022/10/08 01:00:19;;;;;;;14.50;11.63;;;10.70;99.90;;;;;;5024263;28;20173;-75
2022/10/08 01:02:45;;;;;;;17.50;12.65;;;10.80;99.90;;;;;;5015652;28;20209;-75
2022/10/08 01:05:15;;;;;;;17.10;12.38;;;10.80;99.90;;;;;;5021339;28;20522;-74
2022/10/08 01:07:51;;;;;;;17.48;11.65;;;10.80;99.90;;;;;;5024346;28;20601;-74
2022/10/08 01:10:40;;;;;;;17.55;12.20;;;10.80;99.90;;;;;;5018796;28;20181;-75
2022/10/08 01:13:26;;;;;;;20.50;11.68;;;10.80;99.90;;;;;;5019282;28;20209;-73
2022/10/08 01:15:54;;;;;;;14.13;11.68;;;10.90;99.90;;;;;;5018276;28;20652;-73
2022/10/08 01:18:49;;;;;;;20.27;12.43;;;10.90;99.90;;;;;;5021575;28;20394;-74
2022/10/08 01:21:36;;;;;;;18.33;12.10;;;10.90;99.90;;;;;;5016960;28;20202;-75
2022/10/08 01:27:35;;;;;;;17.75;12.82;;;11.00;99.90;;;;;;5017278;28;20180;-76
2022/10/08 01:30:05;;;;;;;17.27;13.07;;;10.90;99.90;;;;;;5022016;28;20232;-76
2022/10/08 01:32:40;;;;;;;15.43;13.07;;;10.90;99.90;;;;;;5017696;28;20213;-77
2022/10/08 01:35:18;;;;;;;25.60;13.88;;;10.80;99.90;;;;;;5016396;28;20205;-75
2022/10/08 01:37:44;;;;;;;15.02;13.02;;;10.90;99.90;;;;;;5018787;28;20187;-75
2022/10/08 01:40:15;;;;;;;15.85;13.30;;;10.90;99.90;;;;;;5020174;28;20221;-75
2022/10/08 01:42:41;;;;;;;15.25;13.68;;;10.90;99.90;;;;;;5010085;28;20212;-76
2022/10/08 01:45:12;;;;;;;15.52;13.90;;;10.90;99.90;;;;;;5024760;28;20194;-75
2022/10/08 01:47:40;;;;;;;14.95;13.48;;;10.80;99.90;;;;;;5021642;28;20176;-74
2022/10/08 01:50:18;;;;;;;17.38;14.65;;;10.80;99.90;;;;;;5020745;28;20185;-75
2022/10/08 01:52:52;;;;;;;16.23;14.57;;;10.80;99.90;;;;;;5012820;28;20233;-77
2022/10/08 01:55:36;;;;;;;16.70;12.73;;;10.70;99.90;;;;;;5032860;28;20185;-76
2022/10/08 01:58:08;;;;;;;15.50;13.85;;;10.80;99.90;;;;;;5020298;28;21770;-74
2022/10/08 02:00:36;;;;;;;15.32;13.73;;;10.80;99.90;;;;;;5025261;28;20296;-75
2022/10/08 02:03:02;;;;;;;15.90;14.20;;;10.80;99.90;;;;;;5016232;28;20209;-74
2022/10/08 02:05:33;;;;;;;15.02;13.40;;;10.80;99.90;;;;;;5021787;28;20188;-73
2022/10/08 02:08:00;;;;;;;19.52;13.35;;;10.70;99.90;;;;;;5023639;28;20702;-73
2022/10/08 02:10:26;;;;;;;15.35;13.70;;;10.60;99.90;;;;;;5017238;28;20193;-75
2022/10/08 02:12:52;;;;;;;16.08;14.30;;;10.70;99.90;;;;;;5022728;28;20763;-74
2022/10/08 02:15:21;;;;;;;20.23;15.80;;;10.60;99.90;;;;;;5023492;28;20218;-75
2022/10/08 02:17:53;;;;;;;19.33;14.35;;;10.60;99.90;;;;;;5008745;28;20241;-75
2022/10/08 02:20:49;;;;;;;17.92;15.27;;;10.60;99.90;;;;;;5014065;28;20240;-77
2022/10/08 02:23:31;;;;;;;17.13;15.27;;;10.50;99.90;;;;;;5010021;28;20216;-77
2022/10/08 02:26:01;;;;;;;17.55;15.65;;;10.50;99.90;;;;;;5008776;28;20549;-75
2022/10/08 02:28:29;;;;;;;20.98;15.68;;;10.40;99.90;;;;;;5008535;28;20184;-75
2022/10/08 02:31:14;;;;;;;19.08;15.80;;;10.40;99.90;;;;;;5011724;28;20207;-76
2022/10/08 02:33:46;;;;;;;18.00;15.68;;;10.40;99.90;;;;;;5008166;28;20201;-76
2022/10/08 02:36:15;;;;;;;16.67;14.93;;;10.40;99.90;;;;;;4999668;28;20239;-75
2022/10/08 02:39:00;;;;;;;20.92;16.40;;;10.40;99.90;;;;;;5007946;28;20185;-76
2022/10/08 02:41:50;;;;;;;19.70;15.48;;;10.40;99.90;;;;;;5009242;28;20201;-78
2022/10/08 02:44:31;;;;;;;18.58;15.10;;;10.40;99.90;;;;;;5007530;28;20299;-77
2022/10/08 02:47:00;;;;;;;22.27;15.95;;;10.50;99.90;;;;;;5009541;28;20259;-76
2022/10/08 02:49:32;;;;;;;17.13;15.32;;;10.40;99.90;;;;;;5013727;28;20224;-75
2022/10/08 02:52:02;;;;;;;18.13;14.88;;;10.40;99.90;;;;;;5022875;28;20538;-74
2022/10/08 02:54:34;;;;;;;18.20;15.55;;;10.40;99.90;;;;;;5016269;28;20206;-73
2022/10/08 02:57:12;;;;;;;18.33;16.33;;;10.30;99.90;;;;;;5008751;28;20197;-77
2022/10/08 02:59:38;;;;;;;17.25;15.55;;;10.40;99.90;;;;;;5021414;28;20244;-77
2022/10/08 03:02:04;;;;;;;16.88;15.10;;;10.40;99.90;;;;;;5015147;28;20208;-77
2022/10/08 03:04:39;;;;;;;18.10;15.73;;;10.40;99.90;;;;;;5019774;28;20212;-76
2022/10/08 03:07:06;;;;;;;16.00;14.40;;;10.30;99.90;;;;;;5006046;28;20411;-77
2022/10/08 03:09:36;;;;;;;16.92;15.13;;;10.30;99.90;;;;;;5016878;28;20183;-77
2022/10/08 03:12:02;;;;;;;15.30;13.82;;;10.50;99.90;;;;;;5021749;28;20181;-77
2022/10/08 03:14:32;;;;;;;16.48;14.88;;;10.50;99.90;;;;;;5015789;28;20225;-77
2022/10/08 03:16:58;;;;;;;16.42;14.73;;;10.50;99.90;;;;;;5015156;28;20393;-76
2022/10/08 03:19:24;;;;;;;16.17;14.57;;;10.50;99.90;;;;;;5011188;28;20178;-76
2022/10/08 03:21:53;;;;;;;16.15;14.55;;;10.60;99.90;;;;;;5008878;28;20220;-76
2022/10/08 03:24:19;;;;;;;17.48;15.70;;;10.60;99.90;;;;;;5012042;28;20270;-74
2022/10/08 03:26:45;;;;;;;15.93;14.18;;;10.60;99.90;;;;;;5011512;28;20180;-74
2022/10/08 03:29:11;;;;;;;16.75;14.93;;;10.60;99.90;;;;;;5024375;28;20211;-74
2022/10/08 03:31:37;;;;;;;16.20;14.60;;;10.60;99.90;;;;;;5012261;28;20201;-74
2022/10/08 03:34:03;;;;;;;17.25;15.65;;;10.60;99.90;;;;;;5012038;28;20201;-74
2022/10/08 03:36:29;;;;;;;16.50;14.90;;;10.60;99.90;;;;;;5008256;28;20185;-73
2022/10/08 03:38:55;;;;;;;15.98;14.38;;;10.60;99.90;;;;;;5007875;28;20219;-73
2022/10/08 03:41:21;;;;;;;16.50;14.90;;;10.60;99.90;;;;;;5010941;28;20676;-74
2022/10/08 03:43:46;;;;;;;15.77;14.27;;;10.60;99.90;;;;;;5006538;28;20205;-76
2022/10/08 03:46:13;;;;;;;17.95;15.95;;;10.50;99.90;;;;;;5011435;28;20184;-76
2022/10/08 03:48:39;;;;;;;17.30;15.65;;;10.40;99.90;;;;;;5012120;28;20177;-76
2022/10/08 03:51:12;;;;;;;18.13;16.33;;;10.40;99.90;;;;;;5011286;28;20180;-76
2022/10/08 03:53:39;;;;;;;17.40;15.70;;;10.30;99.90;;;;;;5009104;28;20189;-76
2022/10/08 03:56:17;;;;;;;18.45;16.60;;;10.30;99.90;;;;;;5010476;28;20189;-75
2022/10/08 03:58:43;;;;;;;18.40;16.38;;;10.30;99.90;;;;;;5012511;28;20271;-75
2022/10/08 04:01:16;;;;;;;19.17;17.23;;;10.30;99.90;;;;;;5010982;28;20272;-75
2022/10/08 04:03:43;;;;;;;19.60;17.60;;;10.30;99.90;;;;;;5011830;28;20220;-77
2022/10/08 04:06:09;;;;;;;18.42;16.63;;;10.40;99.90;;;;;;5017523;28;20173;-77
2022/10/08 04:08:35;;;;;;;20.30;18.30;;;10.40;99.90;;;;;;5015830;28;20234;-74
2022/10/08 04:11:05;;;;;;;19.27;17.38;;;10.40;99.90;;;;;;5009815;28;20610;-73
2022/10/08 04:13:31;;;;;;;21.23;19.10;;;10.50;99.90;;;;;;5007453;28;20209;-74
2022/10/08 04:16:11;;;;;;;25.05;19.35;;;10.50;99.90;;;;;;5014651;28;20260;-74
2022/10/08 04:18:41;;;;;;;21.17;18.98;;;10.40;99.90;;;;;;5011574;28;20169;-80
2022/10/08 04:24:17;;;;;;;21.70;19.30;;;10.50;99.90;;;;;;5018299;28;20895;-76
2022/10/08 04:26:43;;;;;;;22.25;19.95;;;10.50;99.90;;;;;;5010115;28;20593;-76
2022/10/08 04:29:12;;;;;;;23.48;21.00;;;10.40;99.90;;;;;;5013612;28;20256;-77
2022/10/08 04:31:54;;;;;;;23.10;20.30;;;10.50;99.90;;;;;;5009086;28;20197;-77
2022/10/08 04:34:20;;;;;;;25.27;22.58;;;10.50;99.90;;;;;;5011861;28;20684;-76
2022/10/08 04:36:45;;;;;;;25.23;19.63;;;10.50;99.90;;;;;;5004362;28;20250;-77
2022/10/08 04:39:11;;;;;;;20.95;17.77;;;10.50;99.90;;;;;;5002598;28;20190;-77
2022/10/08 04:41:36;;;;;;;25.52;21.42;;;10.60;99.90;;;;;;5004437;28;20247;-76
2022/10/08 04:44:02;;;;;;;22.33;19.90;;;10.70;99.90;;;;;;5005231;28;20637;-75
2022/10/08 04:46:28;;;;;;;23.73;21.30;;;10.70;99.90;;;;;;5005454;28;20188;-76
2022/10/08 04:48:55;;;;;;;26.77;21.98;;;10.80;99.90;;;;;;5006231;28;20304;-75
2022/10/08 04:51:22;;;;;;;23.23;20.92;;;10.80;99.90;;;;;;5008116;28;20243;-74
2022/10/08 04:53:48;;;;;;;22.65;20.15;;;10.90;99.90;;;;;;5011636;28;20703;-74
2022/10/08 04:56:19;;;;;;;23.20;20.80;;;10.90;99.90;;;;;;5002256;28;20190;-77
2022/10/08 04:58:59;;;;;;;24.73;20.88;;;10.90;99.90;;;;;;5007060;28;20265;-78
2022/10/08 05:01:26;;;;;;;24.90;22.25;;;10.90;99.90;;;;;;5013924;28;20205;-77
2022/10/08 05:03:53;;;;;;;23.17;20.52;;;10.80;99.90;;;;;;5015122;28;20197;-77
2022/10/08 05:06:46;;;;;;;23.95;21.35;;;10.80;99.90;;;;;;5015193;28;20181;-76
2022/10/08 05:09:12;;;;;;;28.40;22.55;;;10.80;99.90;;;;;;5007015;28;20188;-77
2022/10/08 05:11:38;;;;;;;25.42;21.80;;;10.80;99.90;;;;;;5008809;28;20177;-77
2022/10/08 05:14:04;;;;;;;26.17;22.05;;;10.90;99.90;;;;;;5004812;28;20233;-77
2022/10/08 05:16:30;;;;;;;26.42;23.45;;;10.90;99.90;;;;;;5010209;28;20246;-79
2022/10/08 05:18:56;;;;;;;31.67;21.63;;;10.90;99.90;;;;;;5009511;28;20243;-79
2022/10/08 05:21:25;;;;;;;26.25;23.02;;;10.90;99.90;;;;;;5010714;28;20205;-79
2022/10/08 05:23:58;;;;;;;25.35;22.42;;;10.90;99.90;;;;;;5009172;28;22483;-78
2022/10/08 05:26:27;;;;;;;26.17;22.67;;;10.90;99.90;;;;;;5011436;28;20189;-79
2022/10/08 05:28:56;;;;;;;26.42;23.63;;;10.90;99.90;;;;;;5011497;28;20776;-76
2022/10/08 05:31:23;;;;;;;28.45;23.85;;;10.90;99.90;;;;;;5008610;28;20709;-77
2022/10/08 05:33:49;;;;;;;26.10;22.55;;;10.90;99.90;;;;;;5007948;28;20202;-76
2022/10/08 05:36:17;;;;;;;27.15;23.98;;;10.90;99.90;;;;;;5005926;28;20553;-76
2022/10/08 05:38:43;;;;;;;24.90;22.00;;;10.90;99.90;;;;;;5022844;28;20641;-76
2022/10/08 05:41:17;;;;;;;27.08;22.33;;;10.90;99.90;;;;;;5004662;28;20193;-79
2022/10/08 05:43:43;;;;;;;25.77;22.42;;;11.00;99.90;;;;;;5010880;28;20186;-78
2022/10/08 05:46:24;;;;;;;25.63;22.42;;;11.10;99.90;;;;;;5013454;28;20185;-78
2022/10/08 05:48:54;;;;;;;27.02;24.13;;;11.00;99.90;;;;;;5016614;28;20185;-77
2022/10/08 05:51:20;;;;;;;26.95;23.73;;;11.10;99.90;;;;;;5010960;28;20691;-76
2022/10/08 05:53:48;;;;;;;26.58;23.17;;;11.00;99.90;;;;;;5006345;28;20189;-77
2022/10/08 05:56:16;;;;;;;24.70;22.05;;;11.10;99.90;;;;;;5007923;28;20325;-77
2022/10/08 05:58:42;;;;;;;29.80;23.70;;;11.20;99.90;;;;;;5004600;28;20181;-77
2022/10/08 06:01:19;;;;;;;26.20;23.27;;;11.20;99.90;;;;;;5004428;28;20664;-77
2022/10/08 06:03:54;;;;;;;26.92;23.30;;;11.20;99.90;;;;;;5005130;28;20279;-77
2022/10/08 06:06:21;;;;;;;26.52;22.98;;;11.20;99.90;;;;;;5006221;28;20192;-76
2022/10/08 06:08:51;;;;;;;28.80;23.35;;;11.30;99.90;;;;;;5010128;28;20173;-78
2022/10/08 06:11:17;;;;;;;26.75;23.73;;;11.30;99.90;;;;;;5008721;28;20174;-76
2022/10/08 06:13:43;;;;;;;26.73;23.25;;;11.30;99.90;;;;;;5006374;28;20201;-77
2022/10/08 06:16:26;;;;;;;24.52;21.63;;;11.30;99.90;;;;;;5010923;28;20189;-77
2022/10/08 06:18:52;;;;;;;24.90;21.60;;;11.40;99.90;;;;;;5011044;28;20280;-76
2022/10/08 06:21:23;;;;;;;25.23;21.92;;;11.50;99.90;;;;;;5008796;28;20256;-76
2022/10/08 06:23:56;;;;;;;25.67;22.58;;;11.60;99.90;;;;;;5010810;28;20691;-76
2022/10/08 06:26:25;;;;;;;27.10;23.10;;;11.60;99.90;;;;;;5009895;28;20178;-76
2022/10/08 06:28:51;;;;;;;25.80;22.27;;;11.60;99.90;;;;;;5009981;28;20184;-76
2022/10/08 06:31:17;;;;;;;25.20;22.30;;;11.70;99.90;;;;;;5005540;28;20212;-76
2022/10/08 06:33:44;;;;;;;25.77;22.13;;;11.80;99.90;;;;;;5006637;28;20205;-75
2022/10/08 06:36:20;;;;;;;24.25;21.75;;;11.80;99.90;;;;;;5007905;28;20232;-75
2022/10/08 06:38:59;;;;;;;27.33;22.83;;;12.00;99.90;;;;;;5008953;28;20550;-75
2022/10/08 06:41:26;;;;;;;26.50;22.50;;;11.90;99.90;;;;;;5006731;28;20232;-76
2022/10/08 06:43:52;;;;;;;24.63;22.02;;;12.00;99.90;;;;;;5008183;28;20279;-76
2022/10/08 06:46:19;;;;;;;24.05;21.38;;;12.10;99.90;;;;;;5008675;28;20177;-76
2022/10/08 06:48:45;;;;;;;24.27;21.77;;;12.10;99.90;;;;;;5009265;28;20189;-77
2022/10/08 06:51:13;;;;;;;24.75;21.08;;;12.00;99.90;;;;;;5007653;28;20205;-78
2022/10/08 06:53:40;;;;;;;23.02;20.55;;;12.10;99.90;;;;;;5007812;28;20618;-77
2022/10/08 06:56:16;;;;;;;25.27;22.55;;;12.20;99.90;;;;;;5006832;28;20284;-78
2022/10/08 06:58:43;;;;;;;24.50;21.90;;;12.20;99.90;;;;;;5016485;28;20187;-77
2022/10/08 07:01:14;;;;;;;22.95;20.27;;;12.20;99.90;;;;;;5020900;28;20259;-78
2022/10/08 07:03:40;;;;;;;23.23;20.20;;;12.30;99.90;;;;;;5021594;28;20675;-78
2022/10/08 07:06:13;;;;;;;22.98;20.67;;;12.40;99.90;;;;;;5009227;28;20206;-76
2022/10/08 07:08:39;;;;;;;21.95;19.70;;;12.50;99.90;;;;;;5009795;28;20227;-77
2022/10/08 07:11:14;;;;;;;22.50;20.15;;;12.60;99.90;;;;;;5007489;28;20651;-77
2022/10/08 07:13:41;;;;;;;23.70;21.17;;;12.60;99.90;;;;;;5009732;28;20230;-77
2022/10/08 07:16:09;;;;;;;22.85;20.45;;;12.50;99.90;;;;;;5008905;28;20238;-76
2022/10/08 07:18:36;;;;;;;22.35;19.95;;;12.60;99.90;;;;;;5009362;28;20234;-75
2022/10/08 07:21:03;;;;;;;24.67;20.63;;;12.60;99.90;;;;;;5006190;28;20188;-76
2022/10/08 07:23:29;;;;;;;21.88;19.70;;;12.70;99.90;;;;;;5009532;28;20213;-76
2022/10/08 07:26:00;;;;;;;21.77;19.48;;;12.70;99.90;;;;;;5008096;28;20188;-75
2022/10/08 07:28:28;;;;;;;24.85;21.48;;;12.70;99.90;;;;;;5008084;28;20524;-75
2022/10/08 07:30:54;;;;;;;22.73;19.73;;;12.70;99.90;;;;;;5004415;28;20181;-76
2022/10/08 07:33:20;;;;;;;22.58;19.95;;;12.70;99.90;;;;;;5011423;28;20679;-77
2022/10/08 07:35:46;;;;;;;20.10;17.85;;;12.70;99.90;;;;;;5008400;28;20216;-77
2022/10/08 07:38:11;;;;;;;23.83;19.05;;;12.80;99.90;;;;;;5013862;28;20231;-77
2022/10/08 07:40:38;;;;;;;20.50;18.40;;;12.80;99.90;;;;;;5014888;28;20267;-75
2022/10/08 07:43:03;;;;;;;20.73;18.63;;;12.90;99.90;;;;;;5015940;28;20209;-75
2022/10/08 07:45:30;;;;;;;20.33;18.13;;;12.90;99.90;;;;;;5019297;28;20655;-76
2022/10/08 07:47:56;;;;;;;21.10;18.88;;;12.80;99.90;;;;;;5020399;28;20189;-77
2022/10/08 07:50:23;;;;;;;20.40;18.23;;;12.80;99.90;;;;;;5018678;28;20185;-75
2022/10/08 07:52:49;;;;;;;20.42;17.50;;;12.90;99.90;;;;;;5021189;28;20209;-77
2022/10/08 07:55:14;;;;;;;19.85;17.80;;;13.00;99.90;;;;;;5017357;28;20276;-76
2022/10/08 07:57:40;;;;;;;20.88;18.75;;;13.00;99.90;;;;;;5018158;28;20205;-76
2022/10/08 08:00:07;;;;;;;18.58;16.58;;;13.10;99.90;;;;;;5025179;28;20222;-75
2022/10/08 08:02:33;;;;;;;19.92;17.88;;;13.20;99.90;;;;;;5023661;28;20291;-73
2022/10/08 08:04:59;;;;;;;17.63;15.82;;;13.30;99.90;;;;;;5028581;28;20173;-76
2022/10/08 08:07:24;;;;;;;20.92;18.67;;;13.30;99.90;;;;;;5015467;28;20227;-77
2022/10/08 08:09:50;;;;;;;19.05;17.10;;;13.50;99.90;;;;;;5027726;28;20193;-80
2022/10/08 08:12:15;;;;;;;20.10;17.67;;;13.60;99.90;;;;;;5026946;28;20185;-77
2022/10/08 08:14:41;;;;;;;20.33;18.23;;;13.40;99.90;;;;;;5020987;28;20189;-78
2022/10/08 08:17:06;;;;;;;19.77;17.63;;;13.40;99.90;;;;;;5017344;28;20237;-78
2022/10/08 08:19:32;;;;;;;22.05;17.92;;;13.40;99.90;;;;;;5020370;28;20189;-78
2022/10/08 08:21:58;;;;;;;20.50;18.33;;;13.40;99.90;;;;;;5021833;28;20206;-78
2022/10/08 08:24:23;;;;;;;19.10;17.20;;;13.50;99.90;;;;;;5022724;28;20201;-78
2022/10/08 08:26:49;;;;;;;17.98;14.38;;;13.50;99.90;;;;;;5015254;28;20194;-78
2022/10/08 08:29:18;;;;;;;19.38;17.38;;;13.70;99.90;;;;;;5016631;28;20604;-78
2022/10/08 08:31:47;;;;;;;19.15;17.17;;;13.80;99.90;;;;;;5020514;28;20185;-78
2022/10/08 08:34:17;;;;;;;19.15;17.00;;;13.80;99.90;;;;;;5021559;28;20209;-78
2022/10/08 08:36:46;;;;;;;20.15;17.25;;;13.80;99.90;;;;;;5020429;28;20181;-78
2022/10/08 08:39:20;;;;;;;17.88;16.08;;;13.90;99.90;;;;;;5024394;28;20181;-78
2022/10/08 08:42:02;;;;;;;18.25;16.40;;;14.20;99.90;;;;;;5019442;28;20196;-78
2022/10/08 08:44:31;;;;;;;17.92;15.82;;;14.60;99.90;;;;;;5017706;28;20204;-78
2022/10/08 08:47:20;;;;;;;17.50;15.75;;;14.80;99.90;;;;;;5024774;28;20720;-77
2022/10/08 08:49:56;;;;;;;18.33;16.42;;;15.00;99.90;;;;;;5014951;28;20271;-78
2022/10/08 08:52:33;;;;;;;17.88;15.95;;;15.40;99.90;;;;;;5020350;28;20651;-78
2022/10/08 08:55:00;;;;;;;17.13;15.38;;;15.60;99.90;;;;;;5025018;28;20188;-77
2022/10/08 08:57:35;;;;;;;17.40;15.60;;;15.60;99.90;;;;;;5021270;28;20774;-79
2022/10/08 09:00:12;;;;;;;17.90;16.10;;;15.50;99.90;;;;;;5018613;28;20184;-78
2022/10/08 09:02:54;;;;;;;17.30;15.63;;;15.60;99.90;;;;;;5020515;28;20224;-77
2022/10/08 09:05:23;;;;;;;16.83;14.85;;;15.70;99.90;;;;;;5016711;28;20207;-78
2022/10/08 09:07:56;;;;;;;17.50;15.80;;;15.70;99.90;;;;;;5019651;28;20177;-78
2022/10/08 09:10:32;;;;;;;17.30;15.70;;;15.80;99.90;;;;;;5017645;28;20177;-78
2022/10/08 09:13:00;;;;;;;17.30;15.20;;;15.70;99.90;;;;;;5017734;28;20577;-78
2022/10/08 09:15:33;;;;;;;16.08;14.48;;;15.70;99.90;;;;;;5018306;28;20185;-78
2022/10/08 09:18:02;;;;;;;16.38;14.88;;;15.70;99.90;;;;;;5014829;28;20192;-78
2022/10/08 09:20:28;;;;;;;16.40;14.70;;;15.70;99.90;;;;;;5020837;28;20726;-77
2022/10/08 09:22:54;;;;;;;16.80;15.02;;;15.80;99.90;;;;;;5019232;28;20221;-77
2022/10/08 09:25:23;;;;;;;17.70;15.98;;;15.80;99.90;;;;;;5017475;28;20649;-78
2022/10/08 09:27:54;;;;;;;16.70;15.00;;;15.90;99.90;;;;;;5009532;28;20177;-78
2022/10/08 09:30:40;;;;;;;15.05;13.65;;;15.90;99.90;;;;;;5014314;28;20180;-78
2022/10/08 09:33:15;;;;;;;17.27;15.38;;;15.90;99.90;;;;;;5012696;28;20637;-78
2022/10/08 09:35:52;;;;;;;16.52;14.75;;;16.20;99.90;;;;;;5012875;28;20188;-77
2022/10/08 09:38:35;;;;;;;16.20;14.57;;;16.40;99.90;;;;;;5011843;28;20662;-78
2022/10/08 09:41:07;;;;;;;16.52;14.82;;;16.60;99.90;;;;;;5009980;28;20189;-77
2022/10/08 09:43:34;;;;;;;16.38;14.70;;;16.80;99.90;;;;;;5005505;28;20618;-78
2022/10/08 09:46:09;;;;;;;17.52;15.13;;;16.80;99.90;;;;;;5006712;28;20181;-78
2022/10/08 09:48:35;;;;;;;16.02;14.52;;;16.60;99.90;;;;;;5010118;28;20172;-77
2022/10/08 09:51:15;;;;;;;16.00;14.43;;;16.50;99.90;;;;;;5010596;28;20706;-78
2022/10/08 09:53:48;;;;;;;15.55;14.05;;;16.30;99.90;;;;;;5008951;28;20193;-77
2022/10/08 09:56:25;;;;;;;16.80;14.38;;;16.40;99.90;;;;;;5007368;28;20185;-77
2022/10/08 09:59:00;;;;;;;15.32;13.82;;;16.40;99.90;;;;;;5009122;28;22114;-79
2022/10/08 10:01:27;;;;;;;15.77;14.10;;;16.60;99.90;;;;;;5009994;28;20181;-76
2022/10/08 10:03:58;;;;;;;16.80;15.23;;;16.70;99.90;;;;;;5008898;28;20275;-79
2022/10/08 10:06:29;;;;;;;15.93;14.35;;;17.10;99.90;;;;;;5009520;28;20185;-77
2022/10/08 10:09:06;;;;;;;17.65;14.23;;;17.30;99.90;;;;;;5007294;28;20223;-77
2022/10/08 10:11:48;;;;;;;15.40;13.85;;;17.50;99.90;;;;;;5009587;28;20195;-77
2022/10/08 10:14:48;;;;;;;17.73;14.98;;;17.80;99.90;;;;;;5007264;28;20224;-78
2022/10/08 10:17:20;;;;;;;16.65;12.98;;;17.90;99.90;;;;;;5006691;28;20173;-77
2022/10/08 10:20:32;;;;;;;16.33;14.60;;;18.20;99.90;;;;;;5008686;28;20205;-78
2022/10/08 10:23:24;;;;;;;15.70;14.10;;;18.30;99.90;;;;;;5009005;28;20259;-77
2022/10/08 10:26:14;;;;;;;15.80;14.23;;;18.40;99.90;;;;;;5007359;28;20213;-77
2022/10/08 10:29:09;;;;;;;16.80;15.15;;;18.60;99.90;;;;;;5008475;28;20185;-77
2022/10/08 10:31:42;;;;;;;15.20;13.57;;;19.00;99.90;;;;;;5001999;28;20659;-78
2022/10/08 10:34:24;;;;;;;15.40;14.02;;;19.20;99.90;;;;;;5006780;28;20212;-77
2022/10/08 10:36:59;;;;;;;14.73;13.43;;;19.40;99.90;;;;;;5008782;28;20204;-77
2022/10/08 10:39:25;;;;;;;16.38;14.80;;;19.40;99.90;;;;;;5011091;28;20188;-76
2022/10/08 10:42:16;;;;;;;15.65;14.02;;;19.10;99.90;;;;;;5015325;28;20205;-75
2022/10/08 10:44:49;;;;;;;14.98;13.48;;;18.90;99.90;;;;;;5006734;28;20648;-73
2022/10/08 10:47:19;;;;;;;15.60;14.10;;;19.10;99.90;;;;;;5005317;28;20193;-75
2022/10/08 10:49:44;;;;;;;15.52;13.95;;;19.40;99.90;;;;;;5006393;28;20177;-75
2022/10/08 10:52:22;;;;;;;14.65;13.38;;;19.70;99.90;;;;;;5007912;28;20901;-74
2022/10/08 10:55:08;;;;;;;15.52;13.98;;;19.80;99.90;;;;;;5006294;28;20665;-76
2022/10/08 10:57:57;;;;;;;15.15;13.75;;;20.30;99.90;;;;;;5007033;28;20565;-75
2022/10/08 11:00:39;;;;;;;14.32;13.02;;;20.90;99.90;;;;;;5004456;28;20264;-76
2022/10/08 11:03:42;;;;;;;15.70;14.15;;;21.80;99.90;;;;;;5007666;28;20282;-75
2022/10/08 11:06:40;;;;;;;15.00;13.60;;;22.20;99.90;;;;;;4997719;28;20200;-75
2022/10/08 11:09:27;;;;;;;16.27;14.77;;;22.30;99.90;;;;;;4988415;28;20217;-75
2022/10/08 11:12:17;;;;;;;15.65;14.27;;;22.40;99.90;;;;;;5005146;28;20660;-76
2022/10/08 11:15:09;;;;;;;15.35;13.85;;;22.40;99.90;;;;;;5004573;28;20181;-76
2022/10/08 11:17:37;;;;;;;15.07;13.63;;;22.10;99.90;;;;;;5009820;28;20203;-79
2022/10/08 11:20:09;;;;;;;15.20;13.88;;;22.00;99.90;;;;;;5024195;28;20208;-77
2022/10/08 11:22:52;;;;;;;14.93;13.50;;;22.00;99.90;;;;;;5014807;28;20314;-77
2022/10/08 11:25:47;;;;;;;14.32;13.07;;;22.00;99.90;;;;;;5010689;28;20191;-77
2022/10/08 11:28:23;;;;;;;15.75;14.32;;;21.90;99.90;;;;;;5014485;28;20195;-77
2022/10/08 11:31:26;;;;;;;16.23;14.82;;;21.80;99.90;;;;;;5009890;28;20174;-76
2022/10/08 11:33:54;;;;;;;16.70;14.93;;;21.90;99.90;;;;;;5011030;28;20198;-76
2022/10/08 11:36:27;;;;;;;13.93;12.75;;;22.20;99.90;;;;;;5005853;28;20181;-76
2022/10/08 11:39:16;;;;;;;15.05;13.70;;;22.70;99.90;;;;;;5004650;28;20655;-77
2022/10/08 11:42:05;;;;;;;14.38;12.98;;;23.00;99.90;;;;;;5005452;28;21524;-77
2022/10/08 11:44:31;;;;;;;15.02;13.65;;;22.80;99.90;;;;;;5004467;28;20220;-76
2022/10/08 11:47:35;;;;;;;15.35;13.80;;;22.30;99.90;;;;;;5005648;28;20544;-77
2022/10/08 11:50:04;;;;;;;15.15;13.85;;;21.80;99.90;;;;;;5017211;28;20189;-76
2022/10/08 11:52:30;;;;;;;14.48;13.25;;;21.70;99.90;;;;;;5015407;28;20284;-82
2022/10/08 11:54:56;;;;;;;14.48;13.18;;;21.50;99.90;;;;;;5001546;28;20197;-78
2022/10/08 11:57:32;;;;;;;14.32;13.00;;;21.30;99.90;;;;;;5008270;28;21069;-79
2022/10/08 12:00:02;;;;;;;15.05;13.05;;;21.20;99.90;;;;;;5003991;28;20544;-78
2022/10/08 12:02:35;;;;;;;14.07;12.68;;;21.10;99.90;;;;;;5006264;28;20204;-77
2022/10/08 12:05:20;;;;;;;13.23;12.02;;;21.00;99.90;;;;;;5008792;28;20178;-77
2022/10/08 12:07:57;;;;;;;14.07;12.57;;;21.20;99.90;;;;;;5009816;28;20172;-77
2022/10/08 12:10:38;;;;;;;13.38;12.18;;;21.60;99.90;;;;;;5005494;28;20258;-77
2022/10/08 12:13:10;;;;;;;13.02;11.75;;;21.90;99.90;;;;;;5023593;28;20205;-77
2022/10/08 12:15:37;;;;;;;12.20;11.10;;;22.00;99.90;;;;;;5004050;28;20194;-77
2022/10/08 12:18:09;;;;;;;14.65;13.35;;;22.00;99.90;;;;;;5007223;28;20174;-77
2022/10/08 12:20:36;;;;;;;14.52;12.82;;;22.10;99.90;;;;;;5007089;28;20196;-78
2022/10/08 12:23:09;;;;;;;15.93;13.30;;;22.50;99.90;;;;;;5010255;28;20213;-78
2022/10/08 12:25:45;;;;;;;13.68;12.45;;;22.70;99.90;;;;;;5007924;28;20178;-79
2022/10/08 12:28:19;;;;;;;14.35;12.95;;;22.20;99.90;;;;;;5005963;28;20223;-77
2022/10/08 12:30:46;;;;;;;13.50;12.25;;;21.90;99.90;;;;;;5011909;28;20659;-77
2022/10/08 12:33:12;;;;;;;14.30;13.00;;;21.60;99.90;;;;;;5009439;28;20201;-77
2022/10/08 12:35:46;;;;;;;12.93;11.82;;;21.30;99.90;;;;;;5008649;28;20205;-77
2022/10/08 12:38:15;;;;;;;13.02;11.82;;;21.40;99.90;;;;;;5005538;28;20565;-78
2022/10/08 12:40:50;;;;;;;13.93;12.68;;;21.50;99.90;;;;;;5011746;28;20189;-77
2022/10/08 12:43:31;;;;;;;13.35;12.25;;;21.40;99.90;;;;;;5008466;28;20258;-77
2022/10/08 12:46:16;;;;;;;13.65;12.40;;;21.30;99.90;;;;;;5012438;28;20169;-78
2022/10/08 12:49:00;;;;;;;13.48;12.27;;;21.30;99.90;;;;;;5011075;28;20256;-79
2022/10/08 12:51:44;;;;;;;13.65;12.23;;;21.20;99.90;;;;;;5013386;28;20177;-79
2022/10/08 12:54:27;;;;;;;13.23;11.95;;;21.30;99.90;;;;;;5010488;28;21215;-79
2022/10/08 12:56:54;;;;;;;13.73;11.75;;;21.50;99.90;;;;;;5015432;28;20193;-78
2022/10/08 12:59:23;;;;;;;13.18;11.85;;;21.60;99.90;;;;;;5010787;28;20177;-78